sensor_id;sensor_type;location;lat;lon;timestamp;P1;durP1;ratioP1;P2;durP2;ratioP2
75639;SDS011;64233;51.486;6.332;2022-11-13T00:01:45;13.23;;;7.97;;
75639;SDS011;64233;51.486;6.332;2022-11-13T00:04:10;12.95;;;7.05;;
75639;SDS011;64233;51.486;6.332;2022-11-13T00:06:36;11.10;;;7.65;;
75639;SDS011;64233;51.486;6.332;2022-11-13T00:09:01;12.82;;;7.80;;
75639;SDS011;64233;51.486;6.332;2022-11-13T00:11:27;12.10;;;7.30;;
75639;SDS011;64233;51.486;6.332;2022-11-13T00:13:52;11.80;;;7.32;;
75639;SDS011;64233;51.486;6.332;2022-11-13T00:16:18;14.68;;;8.02;;
75639;SDS011;64233;51.486;6.332;2022-11-13T00:18:44;13.95;;;8.10;;
75639;SDS011;64233;51.486;6.332;2022-11-13T00:21:21;14.43;;;8.35;;
75639;SDS011;64233;51.486;6.332;2022-11-13T00:23:47;11.38;;;7.60;;
75639;SDS011;64233;51.486;6.332;2022-11-13T00:26:16;19.13;;;8.32;;
75639;SDS011;64233;51.486;6.332;2022-11-13T00:28:46;12.23;;;8.40;;
75639;SDS011;64233;51.486;6.332;2022-11-13T00:31:15;16.55;;;8.52;;
75639;SDS011;64233;51.486;6.332;2022-11-13T00:33:41;14.18;;;8.25;;
75639;SDS011;64233;51.486;6.332;2022-11-13T00:36:07;14.52;;;9.00;;
75639;SDS011;64233;51.486;6.332;2022-11-13T00:38:35;12.48;;;7.78;;
75639;SDS011;64233;51.486;6.332;2022-11-13T00:41:01;15.23;;;8.30;;
75639;SDS011;64233;51.486;6.332;2022-11-13T00:43:26;14.15;;;7.80;;
75639;SDS011;64233;51.486;6.332;2022-11-13T00:45:52;13.25;;;8.40;;
75639;SDS011;64233;51.486;6.332;2022-11-13T00:48:18;12.80;;;8.25;;
75639;SDS011;64233;51.486;6.332;2022-11-13T00:50:43;13.98;;;8.85;;
75639;SDS011;64233;51.486;6.332;2022-11-13T00:53:09;14.55;;;8.65;;
75639;SDS011;64233;51.486;6.332;2022-11-13T00:55:34;14.82;;;8.98;;
75639;SDS011;64233;51.486;6.332;2022-11-13T00:58:00;13.20;;;8.45;;
75639;SDS011;64233;51.486;6.332;2022-11-13T01:00:25;14.68;;;9.52;;
75639;SDS011;64233;51.486;6.332;2022-11-13T01:02:50;13.35;;;7.88;;
75639;SDS011;64233;51.486;6.332;2022-11-13T01:05:16;13.70;;;8.80;;
75639;SDS011;64233;51.486;6.332;2022-11-13T01:07:41;14.32;;;8.60;;
75639;SDS011;64233;51.486;6.332;2022-11-13T01:10:06;14.25;;;8.45;;
75639;SDS011;64233;51.486;6.332;2022-11-13T01:12:32;15.98;;;8.52;;
75639;SDS011;64233;51.486;6.332;2022-11-13T01:14:58;12.65;;;7.30;;
75639;SDS011;64233;51.486;6.332;2022-11-13T01:17:23;12.02;;;8.15;;
75639;SDS011;64233;51.486;6.332;2022-11-13T01:19:49;14.13;;;8.35;;
75639;SDS011;64233;51.486;6.332;2022-11-13T01:22:14;15.93;;;8.98;;
75639;SDS011;64233;51.486;6.332;2022-11-13T01:24:39;12.93;;;7.40;;
75639;SDS011;64233;51.486;6.332;2022-11-13T01:27:05;12.65;;;8.40;;
75639;SDS011;64233;51.486;6.332;2022-11-13T01:29:37;12.77;;;7.80;;
75639;SDS011;64233;51.486;6.332;2022-11-13T01:32:09;12.95;;;9.25;;
75639;SDS011;64233;51.486;6.332;2022-11-13T01:34:35;12.98;;;9.20;;
75639;SDS011;64233;51.486;6.332;2022-11-13T01:37:00;12.48;;;8.65;;
75639;SDS011;64233;51.486;6.332;2022-11-13T01:39:25;15.27;;;7.90;;
75639;SDS011;64233;51.486;6.332;2022-11-13T01:41:51;13.15;;;8.05;;
75639;SDS011;64233;51.486;6.332;2022-11-13T01:44:17;12.80;;;8.10;;
75639;SDS011;64233;51.486;6.332;2022-11-13T01:46:47;13.50;;;8.05;;
75639;SDS011;64233;51.486;6.332;2022-11-13T01:49:23;12.90;;;7.25;;
75639;SDS011;64233;51.486;6.332;2022-11-13T01:54:39;14.05;;;8.43;;
75639;SDS011;64233;51.486;6.332;2022-11-13T01:57:17;17.52;;;9.00;;
75639;SDS011;64233;51.486;6.332;2022-11-13T01:59:45;12.50;;;8.00;;
75639;SDS011;64233;51.486;6.332;2022-11-13T02:02:14;14.65;;;8.38;;
75639;SDS011;64233;51.486;6.332;2022-11-13T02:04:39;12.82;;;8.93;;
75639;SDS011;64233;51.486;6.332;2022-11-13T02:07:06;17.05;;;8.80;;
75639;SDS011;64233;51.486;6.332;2022-11-13T02:09:43;12.20;;;9.05;;
75639;SDS011;64233;51.486;6.332;2022-11-13T02:12:12;15.38;;;9.23;;
75639;SDS011;64233;51.486;6.332;2022-11-13T02:14:45;12.63;;;8.25;;
75639;SDS011;64233;51.486;6.332;2022-11-13T02:17:18;13.55;;;9.00;;
75639;SDS011;64233;51.486;6.332;2022-11-13T02:19:48;14.85;;;8.85;;
75639;SDS011;64233;51.486;6.332;2022-11-13T02:22:34;16.15;;;10.05;;
75639;SDS011;64233;51.486;6.332;2022-11-13T02:25:07;18.05;;;8.98;;
75639;SDS011;64233;51.486;6.332;2022-11-13T02:27:38;12.52;;;9.68;;
75639;SDS011;64233;51.486;6.332;2022-11-13T02:30:17;13.80;;;8.38;;
75639;SDS011;64233;51.486;6.332;2022-11-13T02:32:51;12.48;;;8.98;;
75639;SDS011;64233;51.486;6.332;2022-11-13T02:35:19;13.50;;;8.32;;
75639;SDS011;64233;51.486;6.332;2022-11-13T02:37:48;13.45;;;8.07;;
75639;SDS011;64233;51.486;6.332;2022-11-13T02:40:13;11.80;;;7.60;;
75639;SDS011;64233;51.486;6.332;2022-11-13T02:42:39;15.02;;;8.63;;
75639;SDS011;64233;51.486;6.332;2022-11-13T02:45:05;13.85;;;8.30;;
75639;SDS011;64233;51.486;6.332;2022-11-13T02:47:31;12.27;;;8.75;;
75639;SDS011;64233;51.486;6.332;2022-11-13T02:49:56;17.25;;;9.35;;
75639;SDS011;64233;51.486;6.332;2022-11-13T02:52:22;21.48;;;9.65;;
75639;SDS011;64233;51.486;6.332;2022-11-13T02:54:47;12.35;;;8.48;;
75639;SDS011;64233;51.486;6.332;2022-11-13T02:57:12;13.70;;;9.40;;
75639;SDS011;64233;51.486;6.332;2022-11-13T02:59:38;17.15;;;8.55;;
75639;SDS011;64233;51.486;6.332;2022-11-13T03:02:04;15.38;;;9.07;;
75639;SDS011;64233;51.486;6.332;2022-11-13T03:04:29;13.05;;;8.38;;
75639;SDS011;64233;51.486;6.332;2022-11-13T03:06:54;15.07;;;9.68;;
75639;SDS011;64233;51.486;6.332;2022-11-13T03:09:19;14.02;;;8.85;;
75639;SDS011;64233;51.486;6.332;2022-11-13T03:11:45;19.42;;;9.48;;
75639;SDS011;64233;51.486;6.332;2022-11-13T03:14:10;17.17;;;8.95;;
75639;SDS011;64233;51.486;6.332;2022-11-13T03:16:35;12.95;;;7.47;;
75639;SDS011;64233;51.486;6.332;2022-11-13T03:19:01;9.70;;;6.28;;
75639;SDS011;64233;51.486;6.332;2022-11-13T03:21:27;11.15;;;7.10;;
75639;SDS011;64233;51.486;6.332;2022-11-13T03:23:52;14.57;;;6.57;;
75639;SDS011;64233;51.486;6.332;2022-11-13T03:26:19;11.30;;;6.05;;
75639;SDS011;64233;51.486;6.332;2022-11-13T03:28:44;18.35;;;7.47;;
75639;SDS011;64233;51.486;6.332;2022-11-13T03:31:10;11.45;;;7.15;;
75639;SDS011;64233;51.486;6.332;2022-11-13T03:33:35;10.30;;;7.03;;
75639;SDS011;64233;51.486;6.332;2022-11-13T03:36:00;11.35;;;7.63;;
75639;SDS011;64233;51.486;6.332;2022-11-13T03:38:26;14.00;;;7.45;;
75639;SDS011;64233;51.486;6.332;2022-11-13T03:40:51;12.35;;;7.22;;
75639;SDS011;64233;51.486;6.332;2022-11-13T03:43:17;16.10;;;7.70;;
75639;SDS011;64233;51.486;6.332;2022-11-13T03:45:43;10.27;;;7.07;;
75639;SDS011;64233;51.486;6.332;2022-11-13T03:48:10;10.15;;;7.00;;
75639;SDS011;64233;51.486;6.332;2022-11-13T03:50:36;11.93;;;6.53;;
75639;SDS011;64233;51.486;6.332;2022-11-13T03:53:01;13.15;;;7.90;;
75639;SDS011;64233;51.486;6.332;2022-11-13T03:55:27;16.35;;;7.60;;
75639;SDS011;64233;51.486;6.332;2022-11-13T03:57:52;14.57;;;7.20;;
75639;SDS011;64233;51.486;6.332;2022-11-13T04:00:17;9.63;;;7.13;;
75639;SDS011;64233;51.486;6.332;2022-11-13T04:02:43;10.45;;;6.95;;
75639;SDS011;64233;51.486;6.332;2022-11-13T04:05:08;13.43;;;6.78;;
75639;SDS011;64233;51.486;6.332;2022-11-13T04:07:34;11.57;;;7.70;;
75639;SDS011;64233;51.486;6.332;2022-11-13T04:09:59;11.07;;;6.93;;
75639;SDS011;64233;51.486;6.332;2022-11-13T04:12:24;11.48;;;7.55;;
75639;SDS011;64233;51.486;6.332;2022-11-13T04:14:50;10.15;;;6.93;;
75639;SDS011;64233;51.486;6.332;2022-11-13T04:17:15;8.88;;;6.43;;
75639;SDS011;64233;51.486;6.332;2022-11-13T04:19:40;10.98;;;6.10;;
75639;SDS011;64233;51.486;6.332;2022-11-13T04:22:06;9.25;;;5.65;;
75639;SDS011;64233;51.486;6.332;2022-11-13T04:24:31;9.32;;;5.68;;
75639;SDS011;64233;51.486;6.332;2022-11-13T04:26:56;10.45;;;6.13;;
75639;SDS011;64233;51.486;6.332;2022-11-13T04:29:22;9.50;;;5.75;;
75639;SDS011;64233;51.486;6.332;2022-11-13T04:31:47;7.57;;;5.57;;
75639;SDS011;64233;51.486;6.332;2022-11-13T04:34:12;9.70;;;5.35;;
75639;SDS011;64233;51.486;6.332;2022-11-13T04:36:37;9.85;;;5.38;;
75639;SDS011;64233;51.486;6.332;2022-11-13T04:39:03;10.77;;;5.75;;
75639;SDS011;64233;51.486;6.332;2022-11-13T04:41:28;10.38;;;5.97;;
75639;SDS011;64233;51.486;6.332;2022-11-13T04:44:12;8.88;;;5.63;;
75639;SDS011;64233;51.486;6.332;2022-11-13T04:46:38;13.80;;;5.97;;
75639;SDS011;64233;51.486;6.332;2022-11-13T04:49:03;9.23;;;6.07;;
75639;SDS011;64233;51.486;6.332;2022-11-13T04:51:28;9.52;;;5.75;;
75639;SDS011;64233;51.486;6.332;2022-11-13T04:53:55;9.65;;;5.78;;
75639;SDS011;64233;51.486;6.332;2022-11-13T04:56:20;10.40;;;5.28;;
75639;SDS011;64233;51.486;6.332;2022-11-13T04:58:45;8.25;;;5.47;;
75639;SDS011;64233;51.486;6.332;2022-11-13T05:01:10;11.80;;;6.03;;
75639;SDS011;64233;51.486;6.332;2022-11-13T05:03:36;11.88;;;6.68;;
75639;SDS011;64233;51.486;6.332;2022-11-13T05:06:02;9.00;;;5.55;;
75639;SDS011;64233;51.486;6.332;2022-11-13T05:08:29;7.97;;;6.05;;
75639;SDS011;64233;51.486;6.332;2022-11-13T05:10:54;12.73;;;6.47;;
75639;SDS011;64233;51.486;6.332;2022-11-13T05:13:19;10.27;;;6.45;;
75639;SDS011;64233;51.486;6.332;2022-11-13T05:15:44;11.48;;;6.50;;
75639;SDS011;64233;51.486;6.332;2022-11-13T05:18:10;10.80;;;6.65;;
75639;SDS011;64233;51.486;6.332;2022-11-13T05:20:35;10.18;;;6.03;;
75639;SDS011;64233;51.486;6.332;2022-11-13T05:23:00;10.52;;;6.45;;
75639;SDS011;64233;51.486;6.332;2022-11-13T05:25:26;9.23;;;6.47;;
75639;SDS011;64233;51.486;6.332;2022-11-13T05:27:51;15.20;;;7.10;;
75639;SDS011;64233;51.486;6.332;2022-11-13T05:30:16;9.55;;;6.13;;
75639;SDS011;64233;51.486;6.332;2022-11-13T05:32:41;9.77;;;6.30;;
75639;SDS011;64233;51.486;6.332;2022-11-13T05:35:07;8.80;;;6.47;;
75639;SDS011;64233;51.486;6.332;2022-11-13T05:37:32;8.23;;;5.30;;
75639;SDS011;64233;51.486;6.332;2022-11-13T05:39:58;9.80;;;6.18;;
75639;SDS011;64233;51.486;6.332;2022-11-13T05:42:23;11.25;;;6.57;;
75639;SDS011;64233;51.486;6.332;2022-11-13T05:44:48;10.40;;;6.15;;
75639;SDS011;64233;51.486;6.332;2022-11-13T05:47:14;9.18;;;5.95;;
75639;SDS011;64233;51.486;6.332;2022-11-13T05:49:39;8.63;;;5.82;;
75639;SDS011;64233;51.486;6.332;2022-11-13T05:52:04;18.33;;;7.07;;
75639;SDS011;64233;51.486;6.332;2022-11-13T05:54:29;9.77;;;5.38;;
75639;SDS011;64233;51.486;6.332;2022-11-13T05:56:55;8.43;;;5.25;;
75639;SDS011;64233;51.486;6.332;2022-11-13T05:59:20;5.65;;;4.70;;
75639;SDS011;64233;51.486;6.332;2022-11-13T06:01:45;10.73;;;5.80;;
75639;SDS011;64233;51.486;6.332;2022-11-13T06:04:10;12.82;;;4.80;;
75639;SDS011;64233;51.486;6.332;2022-11-13T06:06:36;8.63;;;4.80;;
75639;SDS011;64233;51.486;6.332;2022-11-13T06:09:03;8.30;;;5.30;;
75639;SDS011;64233;51.486;6.332;2022-11-13T06:11:29;6.97;;;5.22;;
75639;SDS011;64233;51.486;6.332;2022-11-13T06:13:56;7.60;;;4.88;;
75639;SDS011;64233;51.486;6.332;2022-11-13T06:16:26;6.55;;;4.72;;
75639;SDS011;64233;51.486;6.332;2022-11-13T06:18:54;6.70;;;3.88;;
75639;SDS011;64233;51.486;6.332;2022-11-13T06:21:22;7.60;;;5.20;;
75639;SDS011;64233;51.486;6.332;2022-11-13T06:23:49;6.53;;;4.65;;
75639;SDS011;64233;51.486;6.332;2022-11-13T06:26:16;6.35;;;4.63;;
75639;SDS011;64233;51.486;6.332;2022-11-13T06:28:43;7.10;;;4.30;;
75639;SDS011;64233;51.486;6.332;2022-11-13T06:31:13;6.15;;;4.15;;
75639;SDS011;64233;51.486;6.332;2022-11-13T06:33:44;7.07;;;4.65;;
75639;SDS011;64233;51.486;6.332;2022-11-13T06:36:11;8.07;;;5.03;;
75639;SDS011;64233;51.486;6.332;2022-11-13T06:38:40;7.90;;;4.85;;
75639;SDS011;64233;51.486;6.332;2022-11-13T06:41:07;7.10;;;4.60;;
75639;SDS011;64233;51.486;6.332;2022-11-13T06:43:34;5.93;;;4.63;;
75639;SDS011;64233;51.486;6.332;2022-11-13T06:46:19;6.43;;;4.32;;
75639;SDS011;64233;51.486;6.332;2022-11-13T06:48:45;5.85;;;4.15;;
75639;SDS011;64233;51.486;6.332;2022-11-13T06:51:15;5.72;;;4.18;;
75639;SDS011;64233;51.486;6.332;2022-11-13T06:53:46;5.95;;;4.05;;
75639;SDS011;64233;51.486;6.332;2022-11-13T06:56:12;7.47;;;4.82;;
75639;SDS011;64233;51.486;6.332;2022-11-13T06:58:38;7.72;;;5.30;;
75639;SDS011;64233;51.486;6.332;2022-11-13T07:01:08;5.32;;;3.83;;
75639;SDS011;64233;51.486;6.332;2022-11-13T07:03:35;5.45;;;3.97;;
75639;SDS011;64233;51.486;6.332;2022-11-13T07:06:01;5.70;;;4.55;;
75639;SDS011;64233;51.486;6.332;2022-11-13T07:08:28;6.72;;;5.15;;
75639;SDS011;64233;51.486;6.332;2022-11-13T07:10:54;7.65;;;4.93;;
75639;SDS011;64233;51.486;6.332;2022-11-13T07:13:20;9.82;;;4.95;;
75639;SDS011;64233;51.486;6.332;2022-11-13T07:15:46;6.80;;;4.68;;
75639;SDS011;64233;51.486;6.332;2022-11-13T07:18:11;7.05;;;4.80;;
75639;SDS011;64233;51.486;6.332;2022-11-13T07:20:37;9.80;;;5.45;;
75639;SDS011;64233;51.486;6.332;2022-11-13T07:23:02;7.20;;;4.75;;
75639;SDS011;64233;51.486;6.332;2022-11-13T07:25:28;7.75;;;5.70;;
75639;SDS011;64233;51.486;6.332;2022-11-13T07:27:54;9.93;;;4.80;;
75639;SDS011;64233;51.486;6.332;2022-11-13T07:30:20;8.70;;;5.20;;
75639;SDS011;64233;51.486;6.332;2022-11-13T07:32:45;7.22;;;5.03;;
75639;SDS011;64233;51.486;6.332;2022-11-13T07:35:10;7.15;;;5.20;;
75639;SDS011;64233;51.486;6.332;2022-11-13T07:37:36;7.38;;;5.13;;
75639;SDS011;64233;51.486;6.332;2022-11-13T07:40:01;7.50;;;5.22;;
75639;SDS011;64233;51.486;6.332;2022-11-13T07:42:27;10.40;;;5.43;;
75639;SDS011;64233;51.486;6.332;2022-11-13T07:44:53;7.88;;;5.85;;
75639;SDS011;64233;51.486;6.332;2022-11-13T07:47:18;7.60;;;5.32;;
75639;SDS011;64233;51.486;6.332;2022-11-13T07:49:50;7.63;;;5.68;;
75639;SDS011;64233;51.486;6.332;2022-11-13T07:52:22;8.93;;;5.97;;
75639;SDS011;64233;51.486;6.332;2022-11-13T07:54:47;8.55;;;5.55;;
75639;SDS011;64233;51.486;6.332;2022-11-13T07:57:12;8.02;;;5.28;;
75639;SDS011;64233;51.486;6.332;2022-11-13T07:59:38;6.60;;;5.63;;
75639;SDS011;64233;51.486;6.332;2022-11-13T08:02:03;11.02;;;6.20;;
75639;SDS011;64233;51.486;6.332;2022-11-13T08:04:29;10.98;;;5.72;;
75639;SDS011;64233;51.486;6.332;2022-11-13T08:06:54;7.85;;;5.68;;
75639;SDS011;64233;51.486;6.332;2022-11-13T08:09:20;11.05;;;5.28;;
75639;SDS011;64233;51.486;6.332;2022-11-13T08:11:45;8.18;;;5.75;;
75639;SDS011;64233;51.486;6.332;2022-11-13T08:14:10;13.63;;;5.85;;
75639;SDS011;64233;51.486;6.332;2022-11-13T08:16:35;9.52;;;5.75;;
75639;SDS011;64233;51.486;6.332;2022-11-13T08:19:01;7.90;;;5.82;;
75639;SDS011;64233;51.486;6.332;2022-11-13T08:21:27;10.40;;;5.93;;
75639;SDS011;64233;51.486;6.332;2022-11-13T08:23:52;12.65;;;6.45;;
75639;SDS011;64233;51.486;6.332;2022-11-13T08:26:17;8.23;;;5.60;;
75639;SDS011;64233;51.486;6.332;2022-11-13T08:28:43;8.20;;;5.63;;
75639;SDS011;64233;51.486;6.332;2022-11-13T08:31:10;9.65;;;6.20;;
75639;SDS011;64233;51.486;6.332;2022-11-13T08:33:37;8.07;;;6.38;;
75639;SDS011;64233;51.486;6.332;2022-11-13T08:36:02;8.90;;;5.50;;
75639;SDS011;64233;51.486;6.332;2022-11-13T08:38:28;10.38;;;6.20;;
75639;SDS011;64233;51.486;6.332;2022-11-13T08:40:57;10.95;;;6.82;;
75639;SDS011;64233;51.486;6.332;2022-11-13T08:43:23;13.52;;;6.05;;
75639;SDS011;64233;51.486;6.332;2022-11-13T08:45:49;13.77;;;7.25;;
75639;SDS011;64233;51.486;6.332;2022-11-13T08:48:14;8.73;;;5.55;;
75639;SDS011;64233;51.486;6.332;2022-11-13T08:50:39;6.60;;;5.43;;
75639;SDS011;64233;51.486;6.332;2022-11-13T08:53:05;7.13;;;5.28;;
75639;SDS011;64233;51.486;6.332;2022-11-13T08:55:32;7.80;;;5.80;;
75639;SDS011;64233;51.486;6.332;2022-11-13T08:57:58;8.23;;;6.15;;
75639;SDS011;64233;51.486;6.332;2022-11-13T09:00:24;10.93;;;5.50;;
75639;SDS011;64233;51.486;6.332;2022-11-13T09:02:54;8.45;;;5.65;;
75639;SDS011;64233;51.486;6.332;2022-11-13T09:05:21;9.40;;;6.53;;
75639;SDS011;64233;51.486;6.332;2022-11-13T09:07:46;9.32;;;6.22;;
75639;SDS011;64233;51.486;6.332;2022-11-13T09:10:12;8.82;;;5.80;;
75639;SDS011;64233;51.486;6.332;2022-11-13T09:12:37;7.32;;;5.28;;
75639;SDS011;64233;51.486;6.332;2022-11-13T09:15:03;7.85;;;5.90;;
75639;SDS011;64233;51.486;6.332;2022-11-13T09:17:29;9.52;;;5.82;;
75639;SDS011;64233;51.486;6.332;2022-11-13T09:19:55;7.25;;;5.68;;
75639;SDS011;64233;51.486;6.332;2022-11-13T09:22:20;8.95;;;5.80;;
75639;SDS011;64233;51.486;6.332;2022-11-13T09:24:45;8.55;;;5.80;;
75639;SDS011;64233;51.486;6.332;2022-11-13T09:27:10;6.55;;;5.43;;
75639;SDS011;64233;51.486;6.332;2022-11-13T09:29:36;11.48;;;5.97;;
75639;SDS011;64233;51.486;6.332;2022-11-13T09:32:01;8.85;;;5.32;;
75639;SDS011;64233;51.486;6.332;2022-11-13T09:34:26;7.43;;;5.40;;
75639;SDS011;64233;51.486;6.332;2022-11-13T09:36:52;7.72;;;5.50;;
75639;SDS011;64233;51.486;6.332;2022-11-13T09:39:17;10.65;;;6.05;;
75639;SDS011;64233;51.486;6.332;2022-11-13T09:41:44;7.28;;;4.93;;
75639;SDS011;64233;51.486;6.332;2022-11-13T09:47:05;8.65;;;5.80;;
75639;SDS011;64233;51.486;6.332;2022-11-13T09:49:36;8.55;;;4.90;;
75639;SDS011;64233;51.486;6.332;2022-11-13T09:52:09;7.90;;;4.90;;
75639;SDS011;64233;51.486;6.332;2022-11-13T09:54:39;7.93;;;6.00;;
75639;SDS011;64233;51.486;6.332;2022-11-13T09:59:56;6.65;;;4.68;;
75639;SDS011;64233;51.486;6.332;2022-11-13T10:02:44;7.03;;;4.07;;
75639;SDS011;64233;51.486;6.332;2022-11-13T10:05:39;6.43;;;4.55;;
75639;SDS011;64233;51.486;6.332;2022-11-13T10:08:26;8.07;;;4.35;;
75639;SDS011;64233;51.486;6.332;2022-11-13T10:14:06;5.60;;;3.85;;
75639;SDS011;64233;51.486;6.332;2022-11-13T10:16:58;7.85;;;4.90;;
75639;SDS011;64233;51.486;6.332;2022-11-13T10:22:18;6.05;;;4.63;;
75639;SDS011;64233;51.486;6.332;2022-11-13T10:24:49;7.50;;;4.80;;
75639;SDS011;64233;51.486;6.332;2022-11-13T10:27:17;5.20;;;4.53;;
75639;SDS011;64233;51.486;6.332;2022-11-13T10:29:43;5.88;;;3.95;;
75639;SDS011;64233;51.486;6.332;2022-11-13T10:32:25;6.57;;;4.30;;
75639;SDS011;64233;51.486;6.332;2022-11-13T10:37:33;5.07;;;4.07;;
75639;SDS011;64233;51.486;6.332;2022-11-13T10:40:22;6.13;;;3.78;;
75639;SDS011;64233;51.486;6.332;2022-11-13T10:42:52;5.25;;;3.78;;
75639;SDS011;64233;51.486;6.332;2022-11-13T10:45:18;5.05;;;3.60;;
75639;SDS011;64233;51.486;6.332;2022-11-13T10:47:46;4.60;;;3.70;;
75639;SDS011;64233;51.486;6.332;2022-11-13T10:50:21;8.52;;;4.13;;
75639;SDS011;64233;51.486;6.332;2022-11-13T10:52:48;6.47;;;4.00;;
75639;SDS011;64233;51.486;6.332;2022-11-13T10:55:26;5.65;;;4.03;;
75639;SDS011;64233;51.486;6.332;2022-11-13T10:57:56;5.65;;;3.00;;
75639;SDS011;64233;51.486;6.332;2022-11-13T11:02:48;4.50;;;2.70;;
75639;SDS011;64233;51.486;6.332;2022-11-13T11:07:44;4.28;;;2.88;;
75639;SDS011;64233;51.486;6.332;2022-11-13T11:10:29;6.00;;;3.33;;
75639;SDS011;64233;51.486;6.332;2022-11-13T11:13:20;7.20;;;4.03;;
75639;SDS011;64233;51.486;6.332;2022-11-13T11:15:50;5.40;;;3.60;;
75639;SDS011;64233;51.486;6.332;2022-11-13T11:18:23;6.25;;;3.63;;
75639;SDS011;64233;51.486;6.332;2022-11-13T11:20:55;5.10;;;3.67;;
75639;SDS011;64233;51.486;6.332;2022-11-13T11:26:28;6.75;;;3.35;;
75639;SDS011;64233;51.486;6.332;2022-11-13T11:31:38;7.38;;;3.40;;
75639;SDS011;64233;51.486;6.332;2022-11-13T11:34:29;5.70;;;4.15;;
75639;SDS011;64233;51.486;6.332;2022-11-13T11:37:10;3.78;;;2.90;;
75639;SDS011;64233;51.486;6.332;2022-11-13T11:39:43;4.83;;;3.30;;
75639;SDS011;64233;51.486;6.332;2022-11-13T11:48:16;4.22;;;2.72;;
75639;SDS011;64233;51.486;6.332;2022-11-13T11:50:48;3.75;;;2.78;;
75639;SDS011;64233;51.486;6.332;2022-11-13T11:53:18;8.27;;;3.20;;
75639;SDS011;64233;51.486;6.332;2022-11-13T11:55:56;5.05;;;3.13;;
75639;SDS011;64233;51.486;6.332;2022-11-13T12:07:28;5.45;;;3.58;;
75639;SDS011;64233;51.486;6.332;2022-11-13T12:10:15;5.07;;;4.20;;
75639;SDS011;64233;51.486;6.332;2022-11-13T12:16:14;7.40;;;3.25;;
75639;SDS011;64233;51.486;6.332;2022-11-13T12:21:33;7.65;;;3.30;;
75639;SDS011;64233;51.486;6.332;2022-11-13T12:24:21;6.78;;;3.40;;
75639;SDS011;64233;51.486;6.332;2022-11-13T12:27:18;7.10;;;3.17;;
75639;SDS011;64233;51.486;6.332;2022-11-13T12:35:44;7.95;;;3.67;;
75639;SDS011;64233;51.486;6.332;2022-11-13T12:38:32;4.60;;;3.00;;
75639;SDS011;64233;51.486;6.332;2022-11-13T12:41:07;4.97;;;2.65;;
75639;SDS011;64233;51.486;6.332;2022-11-13T12:43:45;5.18;;;3.30;;
75639;SDS011;64233;51.486;6.332;2022-11-13T12:46:17;5.32;;;3.20;;
75639;SDS011;64233;51.486;6.332;2022-11-13T12:48:46;5.00;;;2.60;;
75639;SDS011;64233;51.486;6.332;2022-11-13T12:51:13;4.50;;;2.95;;
75639;SDS011;64233;51.486;6.332;2022-11-13T12:53:50;4.35;;;2.72;;
75639;SDS011;64233;51.486;6.332;2022-11-13T12:58:59;6.53;;;2.20;;
75639;SDS011;64233;51.486;6.332;2022-11-13T13:01:33;3.55;;;2.08;;
75639;SDS011;64233;51.486;6.332;2022-11-13T13:06:53;4.10;;;2.40;;
75639;SDS011;64233;51.486;6.332;2022-11-13T13:09:39;3.30;;;2.40;;
75639;SDS011;64233;51.486;6.332;2022-11-13T13:17:33;6.80;;;2.85;;
75639;SDS011;64233;51.486;6.332;2022-11-13T13:20:00;3.42;;;2.35;;
75639;SDS011;64233;51.486;6.332;2022-11-13T13:22:31;2.72;;;2.17;;
75639;SDS011;64233;51.486;6.332;2022-11-13T13:25:04;9.82;;;2.70;;
75639;SDS011;64233;51.486;6.332;2022-11-13T13:27:33;4.15;;;3.13;;
75639;SDS011;64233;51.486;6.332;2022-11-13T13:30:22;6.53;;;2.95;;
75639;SDS011;64233;51.486;6.332;2022-11-13T13:41:09;3.53;;;2.30;;
75639;SDS011;64233;51.486;6.332;2022-11-13T13:46:17;4.85;;;2.30;;
75639;SDS011;64233;51.486;6.332;2022-11-13T13:48:47;3.92;;;2.13;;
75639;SDS011;64233;51.486;6.332;2022-11-13T13:51:16;4.15;;;2.95;;
75639;SDS011;64233;51.486;6.332;2022-11-13T13:53:49;5.37;;;2.47;;
75639;SDS011;64233;51.486;6.332;2022-11-13T13:56:15;4.20;;;2.03;;
75639;SDS011;64233;51.486;6.332;2022-11-13T13:58:42;3.67;;;2.42;;
75639;SDS011;64233;51.486;6.332;2022-11-13T14:01:11;7.22;;;2.58;;
75639;SDS011;64233;51.486;6.332;2022-11-13T14:03:39;5.32;;;1.98;;
75639;SDS011;64233;51.486;6.332;2022-11-13T14:06:08;5.53;;;2.20;;
75639;SDS011;64233;51.486;6.332;2022-11-13T14:08:45;6.18;;;2.50;;
75639;SDS011;64233;51.486;6.332;2022-11-13T14:11:16;4.45;;;2.17;;
75639;SDS011;64233;51.486;6.332;2022-11-13T14:13:43;3.97;;;2.03;;
75639;SDS011;64233;51.486;6.332;2022-11-13T14:16:08;4.88;;;2.25;;
75639;SDS011;64233;51.486;6.332;2022-11-13T14:18:37;4.82;;;2.53;;
75639;SDS011;64233;51.486;6.332;2022-11-13T14:21:23;5.70;;;3.00;;
75639;SDS011;64233;51.486;6.332;2022-11-13T14:23:49;7.63;;;4.35;;
75639;SDS011;64233;51.486;6.332;2022-11-13T14:26:17;11.38;;;4.88;;
75639;SDS011;64233;51.486;6.332;2022-11-13T14:31:30;8.23;;;4.82;;
75639;SDS011;64233;51.486;6.332;2022-11-13T14:34:00;15.38;;;6.22;;
75639;SDS011;64233;51.486;6.332;2022-11-13T14:36:35;16.50;;;6.43;;
75639;SDS011;64233;51.486;6.332;2022-11-13T14:39:02;10.40;;;6.38;;
75639;SDS011;64233;51.486;6.332;2022-11-13T14:41:35;9.15;;;6.32;;
75639;SDS011;64233;51.486;6.332;2022-11-13T14:44:04;10.65;;;8.13;;
75639;SDS011;64233;51.486;6.332;2022-11-13T14:46:34;11.73;;;7.97;;
75639;SDS011;64233;51.486;6.332;2022-11-13T14:49:10;11.90;;;7.80;;
75639;SDS011;64233;51.486;6.332;2022-11-13T14:51:38;8.73;;;7.35;;
75639;SDS011;64233;51.486;6.332;2022-11-13T14:54:04;12.95;;;7.95;;
75639;SDS011;64233;51.486;6.332;2022-11-13T14:56:32;11.75;;;8.02;;
75639;SDS011;64233;51.486;6.332;2022-11-13T14:59:06;9.88;;;7.45;;
75639;SDS011;64233;51.486;6.332;2022-11-13T15:01:33;9.40;;;5.95;;
75639;SDS011;64233;51.486;6.332;2022-11-13T15:03:58;9.85;;;6.22;;
75639;SDS011;64233;51.486;6.332;2022-11-13T15:06:24;8.30;;;5.68;;
75639;SDS011;64233;51.486;6.332;2022-11-13T15:08:53;9.75;;;6.28;;
75639;SDS011;64233;51.486;6.332;2022-11-13T15:11:21;10.52;;;5.97;;
75639;SDS011;64233;51.486;6.332;2022-11-13T15:13:48;8.15;;;5.55;;
75639;SDS011;64233;51.486;6.332;2022-11-13T15:16:14;8.30;;;5.35;;
75639;SDS011;64233;51.486;6.332;2022-11-13T15:18:51;6.95;;;5.57;;
75639;SDS011;64233;51.486;6.332;2022-11-13T15:21:17;7.20;;;5.20;;
75639;SDS011;64233;51.486;6.332;2022-11-13T15:23:43;9.73;;;5.25;;
75639;SDS011;64233;51.486;6.332;2022-11-13T15:26:11;8.07;;;5.45;;
75639;SDS011;64233;51.486;6.332;2022-11-13T15:28:37;8.77;;;5.90;;
75639;SDS011;64233;51.486;6.332;2022-11-13T15:33:45;9.43;;;6.13;;
75639;SDS011;64233;51.486;6.332;2022-11-13T15:36:11;8.25;;;5.90;;
75639;SDS011;64233;51.486;6.332;2022-11-13T15:38:37;7.07;;;5.57;;
75639;SDS011;64233;51.486;6.332;2022-11-13T15:41:07;9.30;;;5.82;;
75639;SDS011;64233;51.486;6.332;2022-11-13T15:43:42;9.25;;;5.78;;
75639;SDS011;64233;51.486;6.332;2022-11-13T15:46:11;9.32;;;5.47;;
75639;SDS011;64233;51.486;6.332;2022-11-13T15:48:42;8.48;;;5.97;;
75639;SDS011;64233;51.486;6.332;2022-11-13T15:51:12;8.18;;;5.93;;
75639;SDS011;64233;51.486;6.332;2022-11-13T15:53:45;11.43;;;6.22;;
75639;SDS011;64233;51.486;6.332;2022-11-13T15:56:19;6.93;;;5.25;;
75639;SDS011;64233;51.486;6.332;2022-11-13T15:58:45;12.23;;;5.60;;
75639;SDS011;64233;51.486;6.332;2022-11-13T16:01:13;9.63;;;5.30;;
75639;SDS011;64233;51.486;6.332;2022-11-13T16:03:39;7.93;;;5.63;;
75639;SDS011;64233;51.486;6.332;2022-11-13T16:06:12;9.00;;;5.15;;
75639;SDS011;64233;51.486;6.332;2022-11-13T16:08:41;10.20;;;6.03;;
75639;SDS011;64233;51.486;6.332;2022-11-13T16:11:08;6.68;;;5.32;;
75639;SDS011;64233;51.486;6.332;2022-11-13T16:13:37;11.18;;;5.72;;